Ytterholmen Fyr, Noruega

7:53 PM CEST en Agosto 31, 2015 (GMT +0200)
Stokka | | Change Station
CLOSE
Current Station
Aeropuerto
Location: Sandnessjoen,
Altura: 56 ft
Estaciones meteorológicas cercanas

Alt 56 ft 65.96 °N, 12.47 °E | Updated 33 minutes ago

Mostly Cloudy
Muy nublado
50 ° F
Sensación térmica 50 ° F
N
7
Viento Variable Viento desde Este

Hoy
Alta -- | Baja -- ° F
--% Posibilidad de precipitaciones
Ayer
Alta -- | Baja -- ° F
Precip. -- pul
5:43 AM 8:41 PM
Gibosa menguante, 94% visible
Presión 30.06 pul
Visibilidad 6.2 Millas
Nubes Baja 800 ft
Nubes dispersas 1900 ft
Muy nublado 2800 ft
Punto de rocío 48 ° F
Humedad 94%
Precipitaciones 0.00 pul
Espesor de la nieve No disponible.
UV 0 de una escala de 12
Polen No disponible.
Calidad del aire No disponible.
Flu Activity No disponible.
METAR ENST 311720Z 09006KT 9999 FEW008 SCT019 BKN028 10/09 Q1018 RMK WIND 300FT 07006KT
Presión 30.06 pul
Visibilidad 6.2 Millas
Nubes Baja 800 ft
Nubes dispersas 1900 ft
Muy nublado 2800 ft
Punto de rocío 48 ° F
Humedad 94%
Precipitaciones 0.00 pul
Espesor de la nieve No disponible.
UV 0 de una escala de 12
Polen No disponible.
Calidad del aire No disponible.
Flu Activity No disponible.
METAR ENST 311720Z 09006KT 9999 FEW008 SCT019 BKN028 10/09 Q1018 RMK WIND 300FT 07006KT

10-Day Weather Forecast

×

Almanac

Astronomía

Aug. 31, 2015 Salida Puesta
Hora real
Crepúsculo civil
Crepúsculo náutico
Crepúsculo astronómico
Luna
Horas de luz
Horas de luz
Tomorrow will be .
, % of the Moon is Illuminated

Extremos de hoy

Máximos del país Bajas del país

Community

WunderPhotos

Upload Photos

1,851,328 ¡fotos cargadas!

WunderBlogs® & News

Nearby

Calidad del aire

  Calidad del aire Índice AQ Contaminante
Not available.

Grosos de nieve

Estación Profundido Altura

Actividad de terremotos

Ciudad Distance Mag. Tiempo y dato
Magnitud mínima muestra es 2,5.

Temperaturas de aguas costeras

Lugar Temperatura

Stations

Estaciones meteorológicas cercanas

Ubicación de la estación Temp. Vientos helados Punto de rocío Humedad Viento Precip. Alt Actualizado Tipo